Time;durP1;ratioP1;P1;durP2;ratioP2;P2;SDS_P1;SDS_P2;PMS_P1;PMS_P2;Temp;Humidity;BMP_temperature;BMP_pressure;BME280_temperature;BME280_humidity;BME280_pressure;Samples;Min_cycle;Max_cycle;Signal;HPM_P1;HPM_P2
2022/06/20 00:00:13;;;;;;;5.57;1.60;;;18.10;92.10;;;;;;4954831;29;20023;-86
2022/06/20 00:02:48;;;;;;;5.30;1.90;;;18.10;91.90;;;;;;4955300;29;20447;-86
2022/06/20 00:05:17;;;;;;;6.15;2.00;;;18.10;91.50;;;;;;4957126;28;20129;-86
2022/06/20 00:07:43;;;;;;;4.88;1.70;;;18.10;91.60;;;;;;4965536;29;20037;-85
2022/06/20 00:10:14;;;;;;;4.70;1.67;;;18.10;91.60;;;;;;4963871;28;20126;-86
2022/06/20 00:12:40;;;;;;;6.95;1.52;;;18.10;91.70;;;;;;4956814;29;20031;-86
2022/06/20 00:15:07;;;;;;;3.50;1.30;;;18.10;91.80;;;;;;4962433;28;20038;-86
2022/06/20 00:17:33;;;;;;;6.55;1.80;;;18.10;91.60;;;;;;4956176;29;20035;-86
2022/06/20 00:19:58;;;;;;;4.38;1.60;;;18.00;91.60;;;;;;4952725;29;20086;-86
2022/06/20 00:22:24;;;;;;;5.28;2.00;;;18.00;91.80;;;;;;4953042;29;20444;-86
2022/06/20 00:24:51;;;;;;;5.43;1.60;;;18.00;92.00;;;;;;4952485;28;20070;-86
2022/06/20 00:27:17;;;;;;;4.05;1.80;;;18.00;92.10;;;;;;4953666;28;20046;-86
2022/06/20 00:29:43;;;;;;;4.00;1.77;;;18.00;91.60;;;;;;4952262;28;20023;-86
2022/06/20 00:32:10;;;;;;;6.25;1.48;;;18.00;91.40;;;;;;4952535;29;20443;-86
2022/06/20 00:34:36;;;;;;;5.13;1.70;;;17.90;91.30;;;;;;4952672;29;20125;-86
2022/06/20 00:37:05;;;;;;;7.47;3.08;;;17.90;91.30;;;;;;4953431;28;20492;-86
2022/06/20 00:39:31;;;;;;;4.60;2.08;;;18.00;91.10;;;;;;4953573;29;20023;-86
2022/06/20 00:41:59;;;;;;;6.35;1.48;;;18.00;91.10;;;;;;4953563;29;20027;-86
2022/06/20 00:44:34;;;;;;;5.30;1.88;;;18.10;91.10;;;;;;4936492;29;20023;-86
2022/06/20 00:47:05;;;;;;;4.60;1.50;;;18.10;90.90;;;;;;4951977;28;20519;-86
2022/06/20 00:49:45;;;;;;;3.15;1.42;;;18.10;90.80;;;;;;4953319;29;20066;-86
2022/06/20 00:52:21;;;;;;;6.03;1.60;;;18.10;90.50;;;;;;4953663;29;20388;-86
2022/06/20 00:54:50;;;;;;;7.38;1.70;;;18.00;90.30;;;;;;4952040;28;20046;-86
2022/06/20 00:57:22;;;;;;;3.47;1.48;;;18.00;90.50;;;;;;4979431;23;20141;-87
2022/06/20 01:00:16;;;;;;;3.75;1.30;;;18.00;90.70;;;;;;4973113;28;20119;-87
2022/06/20 01:02:48;;;;;;;5.80;1.50;;;18.00;90.50;;;;;;4971832;28;20023;-87
2022/06/20 01:05:16;;;;;;;4.50;1.15;;;18.00;90.50;;;;;;4972918;28;20037;-87
2022/06/20 01:08:07;;;;;;;3.63;1.75;;;17.90;90.60;;;;;;4971299;28;20377;-87
2022/06/20 01:10:43;;;;;;;4.88;1.70;;;18.00;90.70;;;;;;4971308;28;20041;-87
2022/06/20 01:13:17;;;;;;;6.57;1.42;;;18.00;90.70;;;;;;4973234;28;20610;-88
2022/06/20 01:15:45;;;;;;;5.90;2.10;;;18.00;91.50;;;;;;4972945;28;20507;-87
2022/06/20 01:18:20;;;;;;;4.45;1.40;;;18.00;92.10;;;;;;4971792;28;20317;-87
2022/06/20 01:20:47;;;;;;;6.63;1.65;;;18.00;92.50;;;;;;4971422;28;20031;-87
2022/06/20 01:23:48;;;;;;;4.15;1.17;;;18.00;92.30;;;;;;4972096;28;20423;-88
2022/06/20 01:26:29;;;;;;;2.67;1.10;;;17.90;92.40;;;;;;4972046;28;20051;-88
2022/06/20 01:29:01;;;;;;;3.05;1.20;;;17.90;92.50;;;;;;4970940;28;20107;-87
2022/06/20 01:31:31;;;;;;;8.07;1.52;;;17.80;92.40;;;;;;4970971;28;20027;-87
2022/06/20 01:34:00;;;;;;;7.35;1.75;;;17.80;92.80;;;;;;4971144;28;20027;-87
2022/06/20 01:39:16;;;;;;;6.10;2.38;;;17.70;93.40;;;;;;4972092;28;20479;-87
2022/06/20 01:44:27;;;;;;;5.78;2.25;;;17.50;94.30;;;;;;4972134;28;20539;-87
2022/06/20 01:46:52;;;;;;;7.50;2.15;;;17.50;95.00;;;;;;4971707;28;20055;-87
2022/06/20 01:49:23;;;;;;;7.10;2.28;;;17.50;95.00;;;;;;4971999;28;20057;-87
2022/06/20 01:52:04;;;;;;;9.75;2.83;;;17.50;95.90;;;;;;4970967;28;20050;-87
2022/06/20 01:54:32;;;;;;;9.75;2.90;;;17.40;96.60;;;;;;4970729;28;20503;-87
2022/06/20 01:56:58;;;;;;;7.32;2.40;;;17.40;96.20;;;;;;4971795;28;20031;-87
2022/06/20 01:59:36;;;;;;;6.10;2.35;;;17.40;96.60;;;;;;4972236;28;20179;-87
2022/06/20 02:02:02;;;;;;;5.72;2.40;;;17.40;95.80;;;;;;4972333;28;20106;-87
2022/06/20 02:04:33;;;;;;;5.88;2.17;;;17.40;96.40;;;;;;4972180;28;20447;-87
2022/06/20 02:07:05;;;;;;;8.65;2.80;;;17.30;96.20;;;;;;4970520;28;20306;-87
2022/06/20 02:09:31;;;;;;;8.80;2.70;;;17.30;96.90;;;;;;4972128;28;20583;-87
2022/06/20 02:11:59;;;;;;;8.77;2.90;;;17.30;97.20;;;;;;4972030;28;20031;-87
2022/06/20 02:14:50;;;;;;;5.80;2.30;;;17.30;96.80;;;;;;4972272;28;20071;-87
2022/06/20 02:17:22;;;;;;;7.75;2.63;;;17.30;97.40;;;;;;4971885;28;20434;-87
2022/06/20 02:19:51;;;;;;;5.30;2.28;;;17.20;97.40;;;;;;4972168;28;20034;-87
2022/06/20 02:22:21;;;;;;;7.07;2.53;;;17.20;97.50;;;;;;4970683;28;20031;-87
2022/06/20 02:24:50;;;;;;;6.30;2.58;;;17.30;97.70;;;;;;4970532;28;20034;-87
2022/06/20 02:27:23;;;;;;;7.53;2.95;;;17.40;97.90;;;;;;4972012;28;20153;-87
2022/06/20 02:29:49;;;;;;;6.93;2.47;;;17.40;97.90;;;;;;4971760;28;20022;-87
2022/06/20 02:32:23;;;;;;;4.68;2.17;;;17.40;97.30;;;;;;4955014;28;20562;-87
2022/06/20 02:34:50;;;;;;;6.75;2.25;;;17.30;97.60;;;;;;4974719;28;20036;-87
2022/06/20 02:37:23;;;;;;;7.00;2.10;;;17.40;97.60;;;;;;4974498;28;20045;-87
2022/06/20 02:39:57;;;;;;;5.45;2.20;;;17.30;97.30;;;;;;4974240;28;20184;-87
2022/06/20 02:42:51;;;;;;;11.32;3.75;;;17.30;97.10;;;;;;4974132;28;20038;-88
2022/06/20 02:45:18;;;;;;;8.88;2.85;;;17.30;97.40;;;;;;4960277;28;20042;-87
2022/06/20 02:47:48;;;;;;;4.55;2.10;;;17.30;97.30;;;;;;4974088;28;20073;-87
2022/06/20 02:50:17;;;;;;;7.90;2.17;;;17.20;96.40;;;;;;4957717;28;20034;-87
2022/06/20 02:53:04;;;;;;;8.75;2.10;;;17.10;96.20;;;;;;4973856;28;20498;-87
2022/06/20 02:55:32;;;;;;;9.70;2.13;;;16.90;96.40;;;;;;4974083;28;20026;-87
2022/06/20 02:58:03;;;;;;;7.63;2.13;;;17.00;96.80;;;;;;4975068;28;20038;-87
2022/06/20 03:00:37;;;;;;;10.45;2.08;;;16.90;96.60;;;;;;4973590;28;20129;-87
2022/06/20 03:03:09;;;;;;;6.65;1.80;;;16.90;96.50;;;;;;4975067;28;20031;-87
2022/06/20 03:05:39;;;;;;;5.65;2.45;;;16.90;96.70;;;;;;4974996;28;20121;-86
2022/06/20 03:08:05;;;;;;;4.50;1.60;;;16.90;96.50;;;;;;4973823;28;20110;-87
2022/06/20 03:10:39;;;;;;;6.72;2.20;;;16.80;96.60;;;;;;4974793;28;20023;-87
2022/06/20 03:13:05;;;;;;;8.13;1.70;;;16.80;96.40;;;;;;4974867;28;20039;-87
2022/06/20 03:15:33;;;;;;;8.30;2.00;;;16.80;96.70;;;;;;4974589;28;20122;-87
2022/06/20 03:17:59;;;;;;;9.02;2.10;;;16.80;95.90;;;;;;4974896;28;20039;-87
2022/06/20 03:20:26;;;;;;;6.78;1.80;;;16.70;95.80;;;;;;4974738;28;20093;-87
2022/06/20 03:23:04;;;;;;;7.40;2.20;;;16.70;95.60;;;;;;4973586;28;20031;-87
2022/06/20 03:25:30;;;;;;;7.63;2.25;;;16.60;95.30;;;;;;4973567;28;20061;-87
2022/06/20 03:27:57;;;;;;;5.72;1.50;;;16.50;95.30;;;;;;4973163;28;20100;-86
2022/06/20 03:30:34;;;;;;;7.43;2.40;;;16.50;94.80;;;;;;4972958;28;20030;-86
2022/06/20 03:33:03;;;;;;;6.18;1.80;;;16.50;95.00;;;;;;4974555;28;20058;-86
2022/06/20 03:35:31;;;;;;;9.48;2.15;;;16.40;95.10;;;;;;4974459;28;20114;-86
2022/06/20 03:38:04;;;;;;;6.82;2.20;;;16.40;94.80;;;;;;4973979;28;20039;-86
2022/06/20 03:40:30;;;;;;;5.05;1.58;;;16.40;94.90;;;;;;4974061;28;20026;-86
2022/06/20 03:42:58;;;;;;;8.30;2.10;;;16.30;95.30;;;;;;4973026;28;20066;-87
2022/06/20 03:45:28;;;;;;;7.13;1.63;;;16.40;95.60;;;;;;4973910;28;20039;-86
2022/06/20 03:48:26;;;;;;;5.82;1.70;;;16.30;95.60;;;;;;4972737;28;20069;-87
2022/06/20 03:50:58;;;;;;;5.55;1.77;;;16.40;95.50;;;;;;4971774;28;20588;-87
2022/06/20 03:53:41;;;;;;;9.68;1.90;;;16.30;95.10;;;;;;4973077;28;20027;-87
2022/06/20 03:56:20;;;;;;;10.82;1.88;;;16.30;95.40;;;;;;4972492;28;20118;-87
2022/06/20 03:59:09;;;;;;;9.98;1.80;;;16.40;95.70;;;;;;4972731;28;20027;-86
2022/06/20 04:01:41;;;;;;;8.82;1.77;;;16.30;95.80;;;;;;4973795;28;20031;-86
2022/06/20 04:04:18;;;;;;;6.68;1.52;;;16.30;95.20;;;;;;4973840;28;20031;-87
2022/06/20 04:07:02;;;;;;;7.25;2.17;;;16.30;94.80;;;;;;4973484;28;20399;-87
2022/06/20 04:12:34;;;;;;;8.57;2.17;;;16.40;95.50;;;;;;4973646;28;20027;-87
2022/06/20 04:15:12;;;;;;;7.15;2.08;;;16.40;95.50;;;;;;4973575;28;20114;-87
2022/06/20 04:21:14;;;;;;;5.82;1.35;;;16.50;94.70;;;;;;4971322;28;20038;-87
2022/06/20 04:23:43;;;;;;;9.60;2.40;;;16.50;94.70;;;;;;4973584;28;20035;-87
2022/06/20 04:26:37;;;;;;;8.18;1.85;;;16.60;94.70;;;;;;4973007;28;20065;-86
2022/06/20 04:29:25;;;;;;;7.95;1.90;;;16.60;94.50;;;;;;4972028;28;20027;-86
2022/06/20 04:32:16;;;;;;;7.40;1.80;;;16.50;94.60;;;;;;4973198;28;20034;-87
2022/06/20 04:34:50;;;;;;;7.50;1.98;;;16.50;94.70;;;;;;4953935;28;20038;-87
2022/06/20 04:37:47;;;;;;;13.68;3.05;;;16.60;94.70;;;;;;4971601;28;20468;-88
2022/06/20 04:40:22;;;;;;;8.88;1.77;;;16.60;94.00;;;;;;4967039;28;20362;-88
2022/06/20 04:43:02;;;;;;;8.82;1.88;;;16.50;94.00;;;;;;4972966;28;20121;-87
2022/06/20 04:45:40;;;;;;;11.38;2.55;;;16.60;94.10;;;;;;4973072;28;20104;-88
2022/06/20 04:48:23;;;;;;;10.45;2.38;;;16.60;94.10;;;;;;4971891;28;20066;-87
2022/06/20 04:50:59;;;;;;;9.43;2.30;;;16.60;94.10;;;;;;4972540;28;20037;-87
2022/06/20 04:53:28;;;;;;;8.98;2.00;;;16.60;94.20;;;;;;4972883;28;20078;-87
2022/06/20 04:55:58;;;;;;;9.40;2.00;;;16.60;94.30;;;;;;4971015;28;20039;-87
2022/06/20 04:58:42;;;;;;;9.50;2.05;;;16.60;94.30;;;;;;4970985;28;20034;-87
2022/06/20 05:01:12;;;;;;;10.32;1.73;;;16.60;94.80;;;;;;4973192;28;20062;-88
2022/06/20 05:03:49;;;;;;;8.02;1.88;;;16.60;95.00;;;;;;4972333;28;20081;-88
2022/06/20 05:06:28;;;;;;;8.15;1.98;;;16.60;94.70;;;;;;4971677;28;20122;-88
2022/06/20 05:09:07;;;;;;;10.98;2.22;;;16.60;95.80;;;;;;4973385;28;20138;-88
2022/06/20 05:11:39;;;;;;;8.02;1.63;;;16.50;95.90;;;;;;4974403;28;20117;-88
2022/06/20 05:14:18;;;;;;;7.10;2.15;;;16.60;95.90;;;;;;4973090;28;20054;-88
2022/06/20 05:16:49;;;;;;;7.75;2.40;;;16.60;96.30;;;;;;4972627;28;20122;-88
2022/06/20 05:19:24;;;;;;;12.88;2.40;;;16.60;95.40;;;;;;4971381;28;20035;-87
2022/06/20 05:21:53;;;;;;;11.43;2.30;;;16.60;95.20;;;;;;4972788;28;20158;-87
2022/06/20 05:24:27;;;;;;;10.18;2.20;;;16.60;95.00;;;;;;4972958;28;20556;-88
2022/06/20 05:26:54;;;;;;;8.18;2.20;;;16.60;95.50;;;;;;4972802;28;20030;-88
2022/06/20 05:29:33;;;;;;;8.57;2.25;;;16.60;95.60;;;;;;4971662;28;20031;-88
2022/06/20 05:32:03;;;;;;;10.85;2.70;;;16.60;95.70;;;;;;4972725;28;20027;-88
2022/06/20 05:34:52;;;;;;;11.38;2.55;;;16.70;96.10;;;;;;4973057;28;20026;-88
2022/06/20 05:37:27;;;;;;;11.32;2.75;;;16.70;95.90;;;;;;4970946;28;20117;-88
2022/06/20 05:40:16;;;;;;;12.23;2.65;;;16.70;95.70;;;;;;4955286;28;20054;-88
2022/06/20 05:42:42;;;;;;;12.65;3.67;;;16.70;95.90;;;;;;4971204;28;20446;-87
2022/06/20 05:45:17;;;;;;;14.05;3.45;;;16.70;96.50;;;;;;4970812;28;20039;-88
2022/06/20 05:47:49;;;;;;;10.88;2.45;;;16.70;96.80;;;;;;4971828;28;20472;-88
2022/06/20 05:50:15;;;;;;;9.18;2.60;;;16.80;96.80;;;;;;4972034;28;20439;-87
2022/06/20 05:52:43;;;;;;;10.75;2.80;;;16.80;95.80;;;;;;4971136;28;20031;-87
2022/06/20 05:55:23;;;;;;;8.57;2.47;;;16.80;96.00;;;;;;4972089;28;20391;-87
2022/06/20 05:57:50;;;;;;;8.48;2.17;;;16.80;96.20;;;;;;4970666;28;20043;-87
2022/06/20 06:00:26;;;;;;;8.70;2.80;;;16.80;96.20;;;;;;4970535;28;20121;-88
2022/06/20 06:02:54;;;;;;;11.52;2.38;;;16.70;96.30;;;;;;4970645;28;20462;-87
2022/06/20 06:05:30;;;;;;;9.27;2.40;;;16.80;96.60;;;;;;4970523;28;20063;-87
2022/06/20 06:08:25;;;;;;;10.13;2.00;;;16.80;96.60;;;;;;4973207;28;20656;-87
2022/06/20 06:11:02;;;;;;;10.73;2.63;;;16.80;96.90;;;;;;4956430;28;20047;-87
2022/06/20 06:13:49;;;;;;;11.77;2.83;;;16.80;97.00;;;;;;4976039;28;20109;-87
2022/06/20 06:16:49;;;;;;;10.45;2.35;;;16.90;96.40;;;;;;4974491;28;20054;-87
2022/06/20 06:19:48;;;;;;;8.90;1.90;;;16.90;96.40;;;;;;4975434;28;20038;-88
2022/06/20 06:22:33;;;;;;;;;;;17.00;96.10;;;;;;4974917;28;20033;-87
2022/06/20 06:25:06;;;;;;;9.07;2.20;;;17.00;96.30;;;;;;4958110;28;19921;-88
2022/06/20 06:27:35;;;;;;;9.32;2.65;;;17.00;96.70;;;;;;4975937;28;20041;-88
2022/06/20 06:30:02;;;;;;;;;;;17.00;96.80;;;;;;4974390;28;20081;-87
2022/06/20 06:32:39;;;;;;;10.80;2.40;;;17.00;96.90;;;;;;4975562;28;19917;-87
2022/06/20 06:35:11;;;;;;;12.00;2.42;;;17.10;96.40;;;;;;4974420;28;20484;-88
2022/06/20 06:37:50;;;;;;;10.57;2.40;;;17.10;96.20;;;;;;4975846;28;20035;-87
2022/06/20 06:40:40;;;;;;;9.60;2.13;;;17.20;96.00;;;;;;4974205;28;20038;-87
2022/06/20 06:43:51;;;;;;;10.93;2.90;;;17.20;95.50;;;;;;4974052;28;20037;-87
2022/06/20 06:46:27;;;;;;;9.40;2.20;;;17.20;95.60;;;;;;4918116;29;20045;-87
2022/06/20 06:49:27;;;;;;;9.93;1.80;;;17.30;94.50;;;;;;4966099;28;20119;-88
2022/06/20 06:52:11;;;;;;;7.13;1.90;;;17.30;93.80;;;;;;4975417;28;20117;-87
2022/06/20 06:54:59;;;;;;;6.70;1.60;;;17.30;93.70;;;;;;4976076;28;20043;-86
2022/06/20 06:57:40;;;;;;;6.40;1.42;;;17.30;93.60;;;;;;4988967;23;20159;-89
2022/06/20 07:00:06;;;;;;;11.25;1.60;;;17.30;92.80;;;;;;4972692;28;20081;-86
2022/06/20 07:03:15;;;;;;;6.00;1.52;;;17.20;92.50;;;;;;4974545;28;20034;-86
2022/06/20 07:05:46;;;;;;;7.93;1.80;;;17.00;93.40;;;;;;4972264;28;20083;-86
2022/06/20 07:08:21;;;;;;;7.28;1.75;;;17.00;93.30;;;;;;4973209;28;20034;-87
2022/06/20 07:11:04;;;;;;;9.65;1.63;;;17.00;93.70;;;;;;4974627;28;20031;-87
2022/06/20 07:13:46;;;;;;;5.80;1.40;;;17.00;93.60;;;;;;4973265;28;20086;-85
2022/06/20 07:16:28;;;;;;;5.22;1.50;;;17.00;93.70;;;;;;4974441;28;20073;-86
2022/06/20 07:18:56;;;;;;;7.50;1.63;;;17.00;93.70;;;;;;4975288;28;20027;-88
2022/06/20 07:21:25;;;;;;;9.93;1.70;;;17.20;93.40;;;;;;4974310;28;20027;-87
2022/06/20 07:23:56;;;;;;;;;;;17.20;93.40;;;;;;4975022;28;20034;-86
2022/06/20 07:26:24;;;;;;;7.40;2.10;;;17.20;93.10;;;;;;4974023;28;19918;-86
2022/06/20 07:28:58;;;;;;;8.05;1.85;;;17.20;93.10;;;;;;4974281;28;20273;-86
2022/06/20 07:31:33;;;;;;;11.23;2.00;;;17.30;92.50;;;;;;4973066;28;20031;-86
2022/06/20 07:34:23;;;;;;;7.55;1.40;;;17.30;92.80;;;;;;4973032;28;20161;-86
2022/06/20 07:36:56;;;;;;;12.90;2.00;;;17.30;92.50;;;;;;4974018;28;20080;-86
2022/06/20 07:39:27;;;;;;;9.32;1.55;;;17.30;92.50;;;;;;4973894;28;20035;-86
2022/06/20 07:42:07;;;;;;;10.35;1.83;;;17.20;92.90;;;;;;4972916;28;20038;-86
2022/06/20 07:44:48;;;;;;;14.25;2.47;;;17.20;93.40;;;;;;4973940;28;20491;-86
2022/06/20 07:47:21;;;;;;;7.38;1.65;;;17.30;93.70;;;;;;4972423;28;20062;-86
2022/06/20 07:49:52;;;;;;;10.10;2.10;;;17.30;93.20;;;;;;4972528;28;20031;-86
2022/06/20 07:52:38;;;;;;;9.40;1.77;;;17.40;93.00;;;;;;4973885;28;20062;-86
2022/06/20 07:55:10;;;;;;;9.38;2.20;;;17.50;93.20;;;;;;4966530;28;20411;-86
2022/06/20 07:57:44;;;;;;;7.25;1.70;;;17.60;93.20;;;;;;4972217;28;20061;-86
2022/06/20 08:00:22;;;;;;;7.38;1.77;;;17.70;93.20;;;;;;4973561;28;20077;-86
2022/06/20 08:03:19;;;;;;;8.53;1.97;;;17.70;92.60;;;;;;4974181;28;20050;-86
2022/06/20 08:06:11;;;;;;;8.68;2.10;;;17.80;92.30;;;;;;4965990;28;20046;-86
2022/06/20 08:08:58;;;;;;;8.52;1.95;;;17.90;92.40;;;;;;4973418;28;20364;-86
2022/06/20 08:11:41;;;;;;;10.65;1.92;;;18.00;91.60;;;;;;4973428;28;20057;-86
2022/06/20 08:14:10;;;;;;;6.07;1.55;;;18.00;91.50;;;;;;4973586;28;20035;-86
2022/06/20 08:16:37;;;;;;;9.15;1.48;;;18.00;90.00;;;;;;4973217;28;20034;-86
2022/06/20 08:19:03;;;;;;;6.60;1.50;;;18.00;87.70;;;;;;4973230;28;20034;-86
2022/06/20 08:21:47;;;;;;;8.10;1.30;;;18.00;88.30;;;;;;4972072;28;20034;-86
2022/06/20 08:24:19;;;;;;;7.90;1.52;;;18.10;87.00;;;;;;4971988;28;20413;-86
2022/06/20 08:27:06;;;;;;;6.38;1.80;;;18.10;87.70;;;;;;4972908;28;20030;-86
2022/06/20 08:29:43;;;;;;;7.38;1.55;;;18.20;87.60;;;;;;4971679;28;20039;-86
2022/06/20 08:32:28;;;;;;;4.68;1.40;;;18.20;87.50;;;;;;4972213;28;20472;-86
2022/06/20 08:35:23;;;;;;;9.50;1.98;;;18.20;87.90;;;;;;4973663;28;20106;-86
2022/06/20 08:38:18;;;;;;;3.70;1.05;;;18.10;84.80;;;;;;4970025;28;20038;-86
2022/06/20 08:41:19;;;;;;;7.93;1.65;;;18.20;86.00;;;;;;4973165;28;20038;-90
2022/06/20 08:43:54;;;;;;;7.57;1.23;;;18.20;84.50;;;;;;4973106;28;20035;-88
2022/06/20 08:46:23;;;;;;;6.95;1.42;;;18.20;84.10;;;;;;4972631;28;20054;-88
2022/06/20 08:49:26;;;;;;;8.55;1.73;;;18.20;84.70;;;;;;4973777;28;20061;-87
2022/06/20 08:52:28;;;;;;;5.35;1.77;;;18.20;84.00;;;;;;4973153;28;20033;-86
2022/06/20 08:55:28;;;;;;;10.88;1.88;;;18.20;83.60;;;;;;4972871;28;20035;-86
2022/06/20 08:57:53;;;;;;;5.93;1.80;;;18.20;83.30;;;;;;4971156;28;20035;-86
2022/06/20 09:00:28;;;;;;;7.45;2.28;;;18.20;84.20;;;;;;4971398;28;20043;-86
2022/06/20 09:03:04;;;;;;;6.03;1.55;;;18.20;83.80;;;;;;4972730;28;20546;-86
2022/06/20 09:05:50;;;;;;;6.18;1.50;;;18.10;84.50;;;;;;4972479;28;20069;-86
2022/06/20 09:08:28;;;;;;;3.85;1.33;;;18.20;85.10;;;;;;4972468;28;20505;-85
2022/06/20 09:11:33;;;;;;;8.32;2.00;;;18.20;84.80;;;;;;4972670;28;20114;-87
2022/06/20 09:14:19;;;;;;;7.82;1.90;;;18.20;84.20;;;;;;4971998;28;20045;-87
2022/06/20 09:17:05;;;;;;;6.63;1.90;;;18.20;84.40;;;;;;4972397;28;20042;-87
2022/06/20 09:20:05;;;;;;;7.40;1.73;;;18.20;84.40;;;;;;4971055;28;20054;-88
2022/06/20 09:23:02;;;;;;;6.72;1.92;;;18.10;84.40;;;;;;4953764;28;20041;-88
2022/06/20 09:25:31;;;;;;;4.93;1.95;;;18.20;84.00;;;;;;4971830;28;20062;-89
2022/06/20 09:28:12;;;;;;;8.60;1.83;;;18.30;84.30;;;;;;4971538;28;20033;-90
2022/06/20 09:31:00;;;;;;;7.50;2.00;;;18.30;83.70;;;;;;4970458;28;20030;-89
2022/06/20 09:33:45;;;;;;;8.73;1.70;;;18.30;83.80;;;;;;4971952;28;20387;-90
2022/06/20 09:36:11;;;;;;;6.35;1.67;;;18.40;83.20;;;;;;4971342;28;20030;-89
2022/06/20 09:38:43;;;;;;;4.80;1.52;;;18.40;82.90;;;;;;4971668;28;20046;-87
2022/06/20 09:41:36;;;;;;;5.55;1.70;;;18.40;83.00;;;;;;4968418;28;20506;-82
2022/06/20 09:44:20;;;;;;;6.70;1.80;;;18.50;81.50;;;;;;4970123;28;20121;-83
2022/06/20 09:47:06;;;;;;;8.02;1.60;;;18.50;81.90;;;;;;4970900;28;20049;-85
2022/06/20 09:50:12;;;;;;;10.63;2.00;;;18.50;82.90;;;;;;4971484;28;20053;-89
2022/06/20 09:52:50;;;;;;;;;;;18.50;81.50;;;;;;4935038;29;20110;-91
2022/06/20 09:55:43;;;;;;;6.60;1.60;;;18.50;82.00;;;;;;4985174;23;19926;-69
2022/06/20 09:58:32;;;;;;;5.53;1.30;;;18.50;82.40;;;;;;4971869;28;20460;-68
2022/06/20 10:01:06;;;;;;;9.25;1.80;;;18.50;82.60;;;;;;4972014;28;20038;-69
2022/06/20 10:04:00;;;;;;;10.20;2.25;;;18.50;83.10;;;;;;4971962;28;20031;-68
2022/06/20 10:06:54;;;;;;;5.55;1.50;;;18.60;82.30;;;;;;4971659;28;20057;-68
2022/06/20 10:09:25;;;;;;;6.53;1.73;;;18.70;82.10;;;;;;4970523;28;20534;-69
2022/06/20 10:12:00;;;;;;;7.80;2.20;;;18.80;80.90;;;;;;4971812;28;20042;-68
2022/06/20 10:14:31;;;;;;;10.48;2.15;;;18.90;80.90;;;;;;4971784;28;20527;-69
2022/06/20 10:17:21;;;;;;;5.28;1.80;;;19.00;81.60;;;;;;4971352;28;20464;-69
2022/06/20 10:20:04;;;;;;;5.55;1.63;;;19.10;80.90;;;;;;4971587;28;20202;-69
2022/06/20 10:22:41;;;;;;;6.25;1.80;;;19.10;79.50;;;;;;4971796;28;20031;-69
2022/06/20 10:25:33;;;;;;;4.78;1.60;;;19.10;79.50;;;;;;4971674;28;20071;-69
2022/06/20 10:28:17;;;;;;;8.93;1.98;;;19.10;79.50;;;;;;4971872;28;20392;-69
2022/06/20 10:31:25;;;;;;;5.60;2.17;;;19.10;80.90;;;;;;4971796;28;20037;-68
2022/06/20 10:34:10;;;;;;;5.65;1.95;;;19.20;79.00;;;;;;4970216;28;20066;-69
2022/06/20 10:36:45;;;;;;;5.72;1.70;;;19.20;79.50;;;;;;4970200;28;20034;-69
2022/06/20 10:39:34;;;;;;;6.63;2.30;;;19.20;80.20;;;;;;4971442;28;20023;-69
2022/06/20 10:42:32;;;;;;;8.63;2.55;;;19.20;80.60;;;;;;4971751;28;20023;-69
2022/06/20 10:45:13;;;;;;;5.28;2.10;;;19.30;80.90;;;;;;4971837;28;20046;-69
2022/06/20 10:48:13;;;;;;;6.63;2.45;;;19.40;79.40;;;;;;4971407;28;20109;-69
2022/06/20 10:51:09;;;;;;;7.13;2.05;;;19.40;79.50;;;;;;4971512;28;20502;-69
2022/06/20 10:53:49;;;;;;;8.07;1.70;;;19.50;79.00;;;;;;4964976;28;20070;-68
2022/06/20 10:56:34;;;;;;;5.20;1.55;;;19.60;78.90;;;;;;4972787;28;20109;-69
2022/06/20 10:59:27;;;;;;;8.65;1.88;;;19.60;76.80;;;;;;4974469;28;20373;-69
2022/06/20 11:02:12;;;;;;;7.32;1.85;;;19.60;78.10;;;;;;4975012;28;20031;-68
2022/06/20 11:04:37;;;;;;;10.57;2.50;;;19.60;78.50;;;;;;4974791;28;20062;-69
2022/06/20 11:07:27;;;;;;;7.95;2.20;;;19.60;78.20;;;;;;4974817;28;20424;-69
2022/06/20 11:10:05;;;;;;;9.48;2.33;;;19.60;77.60;;;;;;4967179;28;20035;-69
2022/06/20 11:12:53;;;;;;;14.35;2.40;;;19.60;78.20;;;;;;4974788;28;20035;-69
2022/06/20 11:15:25;;;;;;;7.30;2.05;;;19.60;78.60;;;;;;4975047;28;20026;-69
2022/06/20 11:18:10;;;;;;;11.68;2.75;;;19.70;78.00;;;;;;4974579;28;20031;-69
2022/06/20 11:21:21;;;;;;;7.03;1.98;;;19.80;78.40;;;;;;4974554;28;20038;-69
2022/06/20 11:24:16;;;;;;;4.97;2.00;;;19.80;77.20;;;;;;4915282;29;20489;-68
2022/06/20 11:27:30;;;;;;;5.07;1.88;;;19.90;77.60;;;;;;4944394;28;20046;-69
2022/06/20 11:30:18;;;;;;;6.50;1.88;;;19.90;76.90;;;;;;4957101;28;20399;-69
2022/06/20 11:33:06;;;;;;;7.43;2.00;;;19.80;77.60;;;;;;4975112;28;20446;-69
2022/06/20 11:35:44;;;;;;;4.87;1.90;;;19.90;75.60;;;;;;4974702;28;20038;-70
2022/06/20 11:38:26;;;;;;;6.85;2.28;;;19.80;76.50;;;;;;4972527;28;20354;-71
2022/06/20 11:41:00;;;;;;;5.13;1.60;;;19.90;76.90;;;;;;4974090;28;20039;-70
2022/06/20 11:43:35;;;;;;;6.40;2.00;;;19.80;76.30;;;;;;4974224;28;20418;-69
2022/06/20 11:46:40;;;;;;;6.45;1.95;;;19.90;77.40;;;;;;4973686;28;20106;-70
2022/06/20 11:49:11;;;;;;;6.75;1.92;;;20.00;76.70;;;;;;4924871;28;20121;-67
2022/06/20 11:52:19;;;;;;;6.53;2.13;;;20.10;76.00;;;;;;4973670;28;20031;-70
2022/06/20 11:55:09;;;;;;;5.57;1.73;;;20.20;77.40;;;;;;4945938;28;20034;-70
2022/06/20 11:57:38;;;;;;;5.93;1.50;;;20.30;75.60;;;;;;4972465;28;20035;-67
2022/06/20 12:00:12;;;;;;;6.07;1.52;;;20.40;74.90;;;;;;4973664;28;20023;-67
2022/06/20 12:03:01;;;;;;;5.53;1.70;;;20.50;75.30;;;;;;4974002;28;20327;-70
2022/06/20 12:05:42;;;;;;;7.35;1.73;;;20.50;74.90;;;;;;4973600;28;20038;-69
2022/06/20 12:08:21;;;;;;;11.23;2.78;;;20.40;73.80;;;;;;4973903;28;20448;-69
2022/06/20 12:10:56;;;;;;;5.53;2.03;;;20.50;74.30;;;;;;4972133;28;20031;-69
2022/06/20 12:13:32;;;;;;;7.18;1.75;;;20.50;74.00;;;;;;4973843;28;20109;-69
2022/06/20 12:16:06;;;;;;;6.63;1.90;;;20.40;74.10;;;;;;4973837;28;20023;-67
2022/06/20 12:24:38;;;;;;;4.95;1.75;;;20.30;73.70;;;;;;4973632;28;20097;-70
2022/06/20 12:27:10;;;;;;;7.25;2.05;;;20.30;73.20;;;;;;4973163;28;20085;-69
2022/06/20 12:29:36;;;;;;;11.55;2.75;;;20.30;73.40;;;;;;4973441;28;20039;-70
2022/06/20 12:32:10;;;;;;;7.03;2.30;;;20.30;73.90;;;;;;4973405;28;20106;-68
2022/06/20 12:34:42;;;;;;;6.18;1.70;;;20.50;73.30;;;;;;4971980;28;20476;-69
2022/06/20 12:37:32;;;;;;;6.20;2.40;;;20.70;72.40;;;;;;4973104;28;20031;-69
2022/06/20 12:40:10;;;;;;;4.82;1.73;;;21.00;71.10;;;;;;4971762;28;20031;-69
2022/06/20 12:42:48;;;;;;;8.13;2.13;;;21.00;70.30;;;;;;4973020;28;20111;-69
2022/06/20 12:45:34;;;;;;;6.60;1.97;;;21.00;71.30;;;;;;4973119;28;20034;-69
2022/06/20 12:48:05;;;;;;;5.18;2.13;;;21.00;70.40;;;;;;4972932;28;20479;-70
2022/06/20 12:51:04;;;;;;;8.00;2.20;;;21.00;70.80;;;;;;4972880;28;20113;-70
2022/06/20 12:53:35;;;;;;;6.07;2.10;;;21.10;70.50;;;;;;4962504;28;20034;-70
2022/06/20 12:56:22;;;;;;;6.72;1.90;;;21.10;70.20;;;;;;4972790;28;20043;-69
2022/06/20 12:59:24;;;;;;;5.25;1.90;;;21.30;70.60;;;;;;4972552;28;20566;-69
2022/06/20 13:02:05;;;;;;;6.53;2.00;;;21.60;69.50;;;;;;4972676;28;20031;-69
2022/06/20 13:05:06;;;;;;;7.97;2.17;;;21.60;69.30;;;;;;4972934;28;20022;-70
2022/06/20 13:07:37;;;;;;;5.35;2.00;;;21.50;69.30;;;;;;4972600;28;20031;-70
2022/06/20 13:10:26;;;;;;;4.55;1.58;;;21.60;68.40;;;;;;4971278;28;20476;-67
2022/06/20 13:13:21;;;;;;;13.63;2.63;;;21.60;68.90;;;;;;4972762;28;20077;-67
2022/06/20 13:15:50;;;;;;;7.80;1.75;;;21.60;67.50;;;;;;4961377;28;20046;-69
2022/06/20 13:18:15;;;;;;;;;;;21.50;67.30;;;;;;4972380;28;20142;-68
2022/06/20 13:20:59;;;;;;;7.43;1.95;;;21.40;68.40;;;;;;4972376;28;20005;-70
2022/06/20 13:23:47;;;;;;;7.65;2.05;;;21.40;68.20;;;;;;4971094;28;20045;-69
2022/06/20 13:26:26;;;;;;;5.47;1.92;;;21.30;68.80;;;;;;4972223;28;20026;-69
2022/06/20 13:29:31;;;;;;;8.65;4.60;;;21.30;68.50;;;;;;4972582;28;20027;-69
2022/06/20 13:32:27;;;;;;;5.75;2.15;;;21.30;69.20;;;;;;4972405;28;20030;-67
2022/06/20 13:35:32;;;;;;;6.25;1.88;;;21.40;68.20;;;;;;4972251;28;20085;-69
2022/06/20 13:38:09;;;;;;;7.95;2.00;;;21.50;68.70;;;;;;4949107;28;20039;-69
2022/06/20 13:40:54;;;;;;;10.35;2.78;;;21.50;68.20;;;;;;4972484;28;20035;-69
2022/06/20 13:43:29;;;;;;;6.75;2.28;;;21.50;67.90;;;;;;4972287;28;20054;-69
2022/06/20 13:46:07;;;;;;;8.02;2.00;;;21.40;67.60;;;;;;4954694;28;20105;-69
2022/06/20 13:48:45;;;;;;;7.53;2.20;;;21.40;68.40;;;;;;4971982;28;20030;-70
2022/06/20 13:51:27;;;;;;;4.97;2.20;;;21.50;68.70;;;;;;4972036;28;20105;-70
2022/06/20 13:54:12;;;;;;;4.47;1.80;;;21.60;67.70;;;;;;4970765;28;20266;-70
2022/06/20 13:57:09;;;;;;;6.45;2.00;;;21.70;67.00;;;;;;4971958;28;20455;-69
2022/06/20 14:00:06;;;;;;;6.13;1.70;;;21.90;67.20;;;;;;4966242;28;20212;-70
2022/06/20 14:02:41;;;;;;;5.80;1.65;;;22.00;66.80;;;;;;4972203;28;20074;-67